This is the latest recevied weather packets stored in our database for station/object IZ5RIE-13. If no packets are shown the sender has not sent any weather packets the latest 10 day(s).
| Time | Temp. | Humidity | Pressure | Rain* | Wind** | Luminosity | Snow |
|---|---|---|---|---|---|---|---|
| 1788636987 | 26.67° C | 100% | 1019.9 hPa | - | - | - | - |
| 1788636075 | 26.67° C | 100% | 1019.8 hPa | - | - | - | - |
| 1788635174 | 27.22° C | 100% | 1019.7 hPa | - | - | - | - |
| 1788634274 | 27.22° C | 100% | 1019.5 hPa | - | - | - | - |
| 1788633374 | 27.22° C | 100% | 1019.4 hPa | - | - | - | - |
| 1788632474 | 27.78° C | 100% | 1019.3 hPa | - | - | - | - |
| 1788631574 | 28.33° C | 100% | 1019.1 hPa | - | - | - | - |
| 1788630674 | 28.89° C | 100% | 1019 hPa | - | - | - | - |
| 1788629773 | 30.56° C | 95% | 1019 hPa | - | - | - | - |
| 1788628873 | 31.67° C | 75% | 1019 hPa | - | - | - | - |
| 1788627973 | 34.44° C | 68% | 1019 hPa | - | - | - | - |
| 1788627073 | 35.56° C | 63% | 1019 hPa | - | - | - | - |
| 1788626173 | 36.11° C | 61% | 1019.1 hPa | - | - | - | - |
| 1788625273 | 36.67° C | 62% | 1019.1 hPa | - | - | - | - |
| 1788624372 | 37.78° C | 54% | 1019 hPa | - | - | - | - |
| 1788623472 | 37.78° C | 49% | 1018.9 hPa | - | - | - | - |
| 1788622571 | 37.22° C | 51% | 1019 hPa | - | - | - | - |
| 1788621671 | 37.78° C | 51% | 1019 hPa | - | - | - | - |
| 1788620771 | 37.22° C | 56% | 1019.2 hPa | - | - | - | - |
| 1788619871 | 37.22° C | 56% | 1019.2 hPa | - | - | - | - |
| 1788618994 | 36.11° C | 61% | 1019.3 hPa | - | - | - | - |
| 1788618070 | 35° C | 72% | 1019.4 hPa | - | - | - | - |
| 1788617170 | 35° C | 71% | 1019.4 hPa | - | - | - | - |
| 1788616281 | 34.44° C | 69% | 1019.4 hPa | - | - | - | - |
| 1788615381 | 34.44° C | 89% | 1019.6 hPa | - | - | - | - |
* Rain since midnight (hover to see other rain measurements)
** Current wind speed in m/s (hover to see current wind gust speed)